createdAt,value
2023-05-09T00:00:13.770Z,102768.06
2023-05-09T00:02:45.887Z,102765.38
2023-05-09T00:05:15.173Z,102767.13
2023-05-09T00:07:43.484Z,102767.94
2023-05-09T00:10:11.799Z,102774.06
2023-05-09T00:12:40.040Z,102767.91
2023-05-09T00:15:10.188Z,102770.53
2023-05-09T00:17:38.713Z,102767.00
2023-05-09T00:20:12.426Z,102764.34
2023-05-09T00:22:41.617Z,102766.13
2023-05-09T00:25:11.441Z,102762.56
2023-05-09T00:27:39.622Z,102766.09
2023-05-09T00:30:10.066Z,102757.31
2023-05-09T00:32:40.328Z,102765.28
2023-05-09T00:35:10.011Z,102760.84
2023-05-09T00:37:38.939Z,102760.88
2023-05-09T00:40:09.318Z,102762.63
2023-05-09T00:42:37.957Z,102766.13
2023-05-09T00:45:07.055Z,102771.47
2023-05-09T00:47:36.622Z,102767.94
2023-05-09T00:50:05.409Z,102767.97
2023-05-09T00:52:34.547Z,102767.06
2023-05-09T00:55:04.446Z,102771.41
2023-05-09T00:57:33.382Z,102765.28
2023-05-09T01:00:01.575Z,102772.25
2023-05-09T01:02:30.106Z,102776.59
2023-05-09T01:04:59.635Z,102766.00
2023-05-09T01:07:35.982Z,102776.56
2023-05-09T01:10:12.964Z,102765.97
2023-05-09T01:12:48.814Z,102767.66
2023-05-09T01:15:23.301Z,102776.41
2023-05-09T01:17:55.416Z,102769.31
2023-05-09T01:20:33.804Z,102775.44
2023-05-09T01:23:21.854Z,102763.09
2023-05-09T01:26:03.156Z,102770.13
2023-05-09T01:29:02.629Z,102771.88
2023-05-09T01:31:36.086Z,102771.03
2023-05-09T01:34:06.728Z,102766.59
2023-05-09T01:36:37.373Z,102765.75
2023-05-09T01:39:07.014Z,102766.59
2023-05-09T01:41:38.665Z,102769.22
2023-05-09T01:44:11.005Z,102767.41
2023-05-09T01:46:41.481Z,102766.56
2023-05-09T01:49:10.194Z,102764.84
2023-05-09T01:51:42.279Z,102766.59
2023-05-09T01:54:13.633Z,102769.22
2023-05-09T01:56:43.847Z,102769.31
2023-05-09T01:59:16.170Z,102767.56
2023-05-09T02:01:46.462Z,102773.78
2023-05-09T02:04:17.128Z,102773.81
2023-05-09T02:06:50.678Z,102777.38
2023-05-09T02:09:19.545Z,102768.63
2023-05-09T02:11:47.828Z,102777.53
2023-05-09T02:14:15.929Z,102769.66
2023-05-09T02:16:45.474Z,102765.34
2023-05-09T02:19:13.489Z,102765.50
2023-05-09T02:21:42.550Z,102762.22
2023-05-09T02:24:12.158Z,102770.41
2023-05-09T02:26:41.470Z,102775.91
2023-05-09T02:29:11.546Z,102767.38
2023-05-09T02:31:43.605Z,102769.38
2023-05-09T02:34:14.335Z,102770.56
2023-05-09T02:36:42.626Z,102769.91
2023-05-09T02:39:11.445Z,102772.88
2023-05-09T02:41:40.082Z,102767.84
2023-05-09T02:44:08.519Z,102769.88
2023-05-09T02:46:36.549Z,102762.22
2023-05-09T02:49:04.820Z,102766.84
2023-05-09T02:51:34.216Z,102765.28
2023-05-09T02:54:02.253Z,102758.38
2023-05-09T02:56:30.261Z,102765.59
2023-05-09T02:58:58.308Z,102771.00
2023-05-09T03:01:26.419Z,102758.66
2023-05-09T03:03:54.496Z,102765.81
2023-05-09T03:06:23.021Z,102759.69
2023-05-09T03:08:52.517Z,102765.03
2023-05-09T03:11:22.002Z,102760.59
2023-05-09T03:13:50.138Z,102768.53
2023-05-09T03:16:19.738Z,102747.97
2023-05-09T03:18:47.983Z,102754.59
2023-05-09T03:21:16.112Z,102751.94
2023-05-09T03:23:44.658Z,102748.78
2023-05-09T03:26:13.974Z,102747.75
2023-05-09T03:28:43.258Z,102747.34
2023-05-09T03:31:11.352Z,102751.53
2023-05-09T03:33:39.902Z,102748.75
2023-05-09T03:36:09.710Z,102746.69
2023-05-09T03:38:40.871Z,102748.81
2023-05-09T03:41:09.080Z,102743.88
2023-05-09T03:43:38.539Z,102746.47
2023-05-09T03:46:06.647Z,102755.91
2023-05-09T03:48:35.382Z,102753.53
2023-05-09T03:51:03.759Z,102749.81
2023-05-09T03:53:34.740Z,102750.13
2023-05-09T03:56:02.895Z,102749.63
2023-05-09T03:58:34.778Z,102748.59
2023-05-09T04:01:04.349Z,102753.03
2023-05-09T04:03:33.579Z,102740.47
2023-05-09T04:06:01.960Z,102750.75
2023-05-09T04:08:36.027Z,102750.59
2023-05-09T04:11:06.175Z,102752.69
2023-05-09T04:13:35.264Z,102749.41
2023-05-09T04:16:09.686Z,102760.53
2023-05-09T04:18:40.038Z,102757.28
2023-05-09T04:21:08.284Z,102757.28
2023-05-09T04:23:36.513Z,102762.16
2023-05-09T04:26:04.682Z,102764.06
2023-05-09T04:28:32.982Z,102762.09
2023-05-09T04:31:01.945Z,102767.09
2023-05-09T04:33:33.316Z,102773.06
2023-05-09T04:36:03.657Z,102761.13
2023-05-09T04:38:31.811Z,102762.13
2023-05-09T04:41:01.219Z,102763.38
2023-05-09T04:43:29.934Z,102769.69
2023-05-09T04:45:58.024Z,102770.81
2023-05-09T04:48:26.355Z,102774.81
2023-05-09T04:50:55.712Z,102764.84
2023-05-09T04:53:23.722Z,102769.59
2023-05-09T04:55:53.245Z,102771.13
2023-05-09T04:58:22.554Z,102777.31
2023-05-09T05:00:51.396Z,102768.13
2023-05-09T05:03:19.865Z,102773.59
2023-05-09T05:05:48.090Z,102772.44
2023-05-09T05:08:20.647Z,102769.81
2023-05-09T05:10:50.139Z,102769.19
2023-05-09T05:13:19.390Z,102769.09
2023-05-09T05:15:51.023Z,102768.75
2023-05-09T05:18:21.661Z,102758.91
2023-05-09T05:20:49.804Z,102754.31
2023-05-09T05:23:19.439Z,102768.81
2023-05-09T05:25:48.140Z,102765.34
2023-05-09T05:28:16.346Z,102769.06
2023-05-09T05:30:44.543Z,102770.25
2023-05-09T05:33:13.824Z,102769.44
2023-05-09T05:35:41.905Z,102767.16
2023-05-09T05:38:10.042Z,102763.50
2023-05-09T05:40:40.095Z,102769.72
2023-05-09T05:43:09.093Z,102759.25
2023-05-09T05:45:39.181Z,102761.47
2023-05-09T05:48:10.006Z,102758.16
2023-05-09T05:50:38.131Z,102759.66
2023-05-09T05:53:06.561Z,102764.63
2023-05-09T05:55:34.885Z,102768.06
2023-05-09T05:58:04.959Z,102762.78
2023-05-09T06:00:33.073Z,102766.78
2023-05-09T06:03:06.101Z,102756.69
2023-05-09T06:06:07.741Z,102762.44
2023-05-09T06:08:36.267Z,102765.81
2023-05-09T06:11:05.861Z,102762.31
2023-05-09T06:13:35.902Z,102765.91
2023-05-09T06:16:18.066Z,102757.19
2023-05-09T06:18:49.681Z,102752.13
2023-05-09T06:21:17.916Z,102750.06
2023-05-09T06:26:17.523Z,102751.00
2023-05-09T06:28:46.924Z,102744.09
2023-05-09T06:31:15.047Z,102733.03
2023-05-09T06:33:43.120Z,102748.53
2023-05-09T06:36:11.900Z,102750.41
2023-05-09T06:38:39.985Z,102748.72
2023-05-09T06:41:08.103Z,102739.00
2023-05-09T06:43:37.246Z,102748.81
2023-05-09T06:46:06.799Z,102737.75
2023-05-09T06:48:34.814Z,102738.22
2023-05-09T06:51:03.064Z,102738.53
2023-05-09T06:53:31.114Z,102730.97
2023-05-09T06:55:59.397Z,102747.69
2023-05-09T06:58:28.100Z,102741.63
2023-05-09T07:00:56.172Z,102739.63
2023-05-09T07:03:26.103Z,102735.22
2023-05-09T07:05:56.768Z,102736.59
2023-05-09T07:08:25.250Z,102733.91
2023-05-09T07:10:53.299Z,102733.28
2023-05-09T07:13:21.479Z,102732.59
2023-05-09T07:15:49.682Z,102734.25
2023-05-09T07:18:17.781Z,102725.09
2023-05-09T07:20:47.118Z,102730.66
2023-05-09T07:23:15.246Z,102726.94
2023-05-09T07:25:43.922Z,102716.00
2023-05-09T07:28:12.717Z,102724.56
2023-05-09T07:30:41.226Z,102717.59
2023-05-09T07:33:09.488Z,102717.34
2023-05-09T07:35:37.536Z,102711.44
2023-05-09T07:38:07.421Z,102710.47
2023-05-09T07:40:36.518Z,102701.22
2023-05-09T07:43:04.621Z,102697.69
2023-05-09T07:45:32.703Z,102695.38
2023-05-09T07:48:00.842Z,102696.81
2023-05-09T07:50:29.068Z,102690.78
2023-05-09T07:52:57.268Z,102692.41
2023-05-09T07:55:26.777Z,102687.56
2023-05-09T07:57:54.883Z,102684.53
2023-05-09T08:00:24.299Z,102677.41
2023-05-09T08:02:52.927Z,102683.09
2023-05-09T08:05:21.235Z,102687.19
2023-05-09T08:07:49.574Z,102675.34
2023-05-09T08:10:17.642Z,102686.00
2023-05-09T08:12:47.023Z,102669.56
2023-05-09T08:15:15.376Z,102671.06
2023-05-09T08:17:43.805Z,102665.41
2023-05-09T08:20:13.389Z,102663.13
2023-05-09T08:22:42.235Z,102660.09
2023-05-09T08:25:10.665Z,102658.41
2023-05-09T08:27:38.910Z,102664.25
2023-05-09T08:30:09.647Z,102655.63
2023-05-09T08:32:38.315Z,102653.09
2023-05-09T08:35:08.855Z,102646.06
2023-05-09T08:37:37.196Z,102650.09
2023-05-09T08:40:07.595Z,102654.13
2023-05-09T08:42:38.221Z,102651.22
2023-05-09T08:45:11.135Z,102648.63
2023-05-09T08:47:40.272Z,102634.50
2023-05-09T08:50:09.657Z,102645.56
2023-05-09T08:52:37.622Z,102644.88
2023-05-09T08:55:06.587Z,102641.38
2023-05-09T08:57:36.237Z,102635.66
2023-05-09T09:00:06.645Z,102630.53
2023-05-09T09:02:37.116Z,102631.78
2023-05-09T09:07:39.397Z,102624.75
2023-05-09T09:10:11.661Z,102618.56
2023-05-09T09:12:41.030Z,102623.06
2023-05-09T09:15:16.031Z,102629.34
2023-05-09T09:17:49.604Z,102624.94
2023-05-09T09:20:21.909Z,102625.06
2023-05-09T09:22:52.401Z,102623.56
2023-05-09T09:25:20.677Z,102630.00
2023-05-09T09:27:48.784Z,102625.84
2023-05-09T09:30:18.103Z,102624.31
2023-05-09T09:32:48.643Z,102618.19
2023-05-09T09:35:17.946Z,102617.56
2023-05-09T09:37:46.150Z,102622.00
2023-05-09T09:40:14.847Z,102619.50
2023-05-09T09:42:43.843Z,102622.06
2023-05-09T09:45:13.607Z,102612.28
2023-05-09T09:47:43.816Z,102617.34
2023-05-09T09:50:15.842Z,102616.69
2023-05-09T09:52:45.713Z,102620.44
2023-05-09T09:55:14.189Z,102612.41
2023-05-09T09:57:45.607Z,102611.59
2023-05-09T10:00:16.118Z,102603.47
2023-05-09T10:02:52.428Z,102609.31
2023-05-09T10:05:23.657Z,102596.66
2023-05-09T10:07:55.572Z,102597.75
2023-05-09T10:10:24.242Z,102604.69
2023-05-09T10:12:53.236Z,102603.13
2023-05-09T10:15:22.045Z,102600.53
2023-05-09T10:17:55.008Z,102600.66
2023-05-09T10:20:25.296Z,102600.06
2023-05-09T10:22:57.058Z,102590.78
2023-05-09T10:25:33.313Z,102597.97
2023-05-09T10:28:02.674Z,102594.28
2023-05-09T10:30:34.224Z,102585.34
2023-05-09T10:33:05.092Z,102591.88
2023-05-09T10:35:38.452Z,102591.78
2023-05-09T10:38:08.168Z,102584.81
2023-05-09T10:40:36.555Z,102586.94
2023-05-09T10:43:05.328Z,102587.41
2023-05-09T10:45:34.149Z,102592.38
2023-05-09T10:48:04.093Z,102591.50
2023-05-09T10:50:32.724Z,102586.13
2023-05-09T10:53:11.573Z,102582.41
2023-05-09T10:55:40.958Z,102580.69
2023-05-09T10:58:21.040Z,102573.41
2023-05-09T11:00:49.651Z,102573.56
2023-05-09T11:03:19.422Z,102572.41
2023-05-09T11:05:48.881Z,102586.28
2023-05-09T11:08:23.088Z,102579.31
2023-05-09T11:10:51.311Z,102578.47
2023-05-09T11:13:20.813Z,102578.69
2023-05-09T11:16:07.462Z,102573.63
2023-05-09T11:18:35.647Z,102575.63
2023-05-09T11:21:09.546Z,102576.78
2023-05-09T11:23:39.425Z,102575.41
2023-05-09T11:26:08.981Z,102568.41
2023-05-09T11:28:39.625Z,102571.13
2023-05-09T11:31:11.563Z,102559.72
2023-05-09T11:33:41.068Z,102554.41
2023-05-09T11:36:20.481Z,102550.03
2023-05-09T11:38:50.036Z,102548.53
2023-05-09T11:41:18.484Z,102545.59
2023-05-09T11:43:46.648Z,102549.09
2023-05-09T11:46:14.936Z,102552.09
2023-05-09T11:48:43.041Z,102549.75
2023-05-09T11:51:17.656Z,102538.13
2023-05-09T11:53:47.215Z,102538.06
2023-05-09T11:56:17.391Z,102534.41
2023-05-09T11:58:46.809Z,102529.81
2023-05-09T12:01:15.065Z,102532.84
2023-05-09T12:03:45.142Z,102518.75
2023-05-09T12:06:17.214Z,102522.22
2023-05-09T12:08:46.813Z,102507.66
2023-05-09T12:11:16.357Z,102516.53
2023-05-09T12:13:48.598Z,102512.75
2023-05-09T12:16:18.048Z,102516.25
2023-05-09T12:18:47.995Z,102502.13
2023-05-09T12:21:16.520Z,102506.81
2023-05-09T12:23:44.658Z,102498.50
2023-05-09T12:26:13.067Z,102495.56
2023-05-09T12:28:44.605Z,102496.09
2023-05-09T12:31:13.180Z,102492.44
2023-05-09T12:33:41.961Z,102485.91
2023-05-09T12:36:11.703Z,102493.78
2023-05-09T12:38:40.137Z,102486.72
2023-05-09T12:41:21.947Z,102486.44
2023-05-09T12:43:59.645Z,102489.88
2023-05-09T12:46:27.854Z,102486.50
2023-05-09T12:48:56.458Z,102481.47
2023-05-09T12:51:24.636Z,102480.06
2023-05-09T12:53:52.727Z,102468.38
2023-05-09T12:56:22.919Z,102463.94
2023-05-09T12:58:52.217Z,102471.88
2023-05-09T13:01:23.762Z,102462.50
2023-05-09T13:04:02.627Z,102466.88
2023-05-09T13:06:30.824Z,102461.28
2023-05-09T13:09:01.410Z,102459.34
2023-05-09T13:11:30.628Z,102455.69
2023-05-09T13:13:59.385Z,102446.72
2023-05-09T13:16:28.868Z,102451.88
2023-05-09T13:18:56.918Z,102445.66
2023-05-09T13:21:24.970Z,102436.97
2023-05-09T13:23:53.068Z,102443.09
2023-05-09T13:26:21.145Z,102438.88
2023-05-09T13:28:49.417Z,102441.59
2023-05-09T13:31:18.825Z,102443.28
2023-05-09T13:33:49.992Z,102436.50
2023-05-09T13:36:19.655Z,102438.56
2023-05-09T13:38:47.785Z,102440.09
2023-05-09T13:41:20.362Z,102427.03
2023-05-09T13:43:48.812Z,102425.25
2023-05-09T13:46:17.123Z,102424.19
2023-05-09T13:48:45.683Z,102425.50
2023-05-09T13:51:15.141Z,102427.50
2023-05-09T13:53:43.121Z,102420.41
2023-05-09T13:56:11.903Z,102427.59
2023-05-09T13:58:39.913Z,102418.75
2023-05-09T14:01:08.136Z,102415.06
2023-05-09T14:03:36.323Z,102410.59
2023-05-09T14:06:04.873Z,102412.41
2023-05-09T14:08:34.667Z,102417.84
2023-05-09T14:11:02.971Z,102413.47
2023-05-09T14:13:32.026Z,102406.31
2023-05-09T14:16:00.380Z,102419.72
2023-05-09T14:18:28.610Z,102406.22
2023-05-09T14:20:56.661Z,102400.00
2023-05-09T14:23:25.430Z,102407.03
2023-05-09T14:25:54.852Z,102407.00
2023-05-09T14:28:23.160Z,102402.00
2023-05-09T14:30:51.262Z,102395.75
2023-05-09T14:33:19.357Z,102401.09
2023-05-09T14:35:47.577Z,102402.03
2023-05-09T14:38:15.569Z,102401.22
2023-05-09T14:40:43.652Z,102403.03
2023-05-09T14:43:13.299Z,102396.88
2023-05-09T14:45:41.399Z,102388.88
2023-05-09T14:48:09.377Z,102387.03
2023-05-09T14:50:37.462Z,102392.41
2023-05-09T14:53:05.644Z,102394.38
2023-05-09T14:55:33.664Z,102380.44
2023-05-09T14:58:02.654Z,102378.78
2023-05-09T15:00:32.986Z,102377.94
2023-05-09T15:03:01.147Z,102371.81
2023-05-09T15:05:29.196Z,102371.78
2023-05-09T15:07:57.270Z,102374.50
2023-05-09T15:10:26.612Z,102379.84
2023-05-09T15:12:55.223Z,102373.03
2023-05-09T15:15:24.564Z,102368.63
2023-05-09T15:17:55.275Z,102367.81
2023-05-09T15:20:23.584Z,102359.00
2023-05-09T15:22:52.250Z,102362.63
2023-05-09T15:25:21.850Z,102360.84
2023-05-09T15:27:50.486Z,102354.59
2023-05-09T15:30:19.156Z,102356.41
2023-05-09T15:32:47.379Z,102345.56
2023-05-09T15:35:18.385Z,102351.78
2023-05-09T15:37:46.669Z,102358.25
2023-05-09T15:40:15.647Z,102349.31
2023-05-09T15:42:43.828Z,102344.03
2023-05-09T15:45:12.147Z,102338.75
2023-05-09T15:47:40.240Z,102337.97
2023-05-09T15:50:08.979Z,102337.97
2023-05-09T15:52:38.447Z,102341.56
2023-05-09T15:55:08.509Z,102334.63
2023-05-09T15:57:36.647Z,102339.22
2023-05-09T16:00:05.759Z,102328.59
2023-05-09T16:02:41.185Z,102329.63
2023-05-09T16:05:09.702Z,102325.28
2023-05-09T16:07:39.134Z,102320.16
2023-05-09T16:10:08.286Z,102322.13
2023-05-09T16:12:36.307Z,102313.44
2023-05-09T16:15:05.877Z,102308.28
2023-05-09T16:17:34.224Z,102306.69
2023-05-09T16:20:02.332Z,102308.72
2023-05-09T16:22:31.458Z,102306.06
2023-05-09T16:25:01.528Z,102307.00
2023-05-09T16:27:29.653Z,102304.50
2023-05-09T16:29:57.704Z,102302.78
2023-05-09T16:32:25.892Z,102302.81
2023-05-09T16:34:54.310Z,102301.22
2023-05-09T16:37:23.504Z,102299.50
2023-05-09T16:39:51.772Z,102289.88
2023-05-09T16:42:21.570Z,102297.19
2023-05-09T16:44:49.989Z,102300.00
2023-05-09T16:47:18.135Z,102298.44
2023-05-09T16:49:46.190Z,102298.63
2023-05-09T16:52:14.238Z,102297.91
2023-05-09T16:54:42.255Z,102291.91
2023-05-09T16:57:10.323Z,102287.59
2023-05-09T16:59:39.761Z,102287.63
2023-05-09T17:02:07.971Z,102292.19
2023-05-09T17:04:37.812Z,102293.19
2023-05-09T17:07:06.178Z,102292.34
2023-05-09T17:09:34.241Z,102290.66
2023-05-09T17:12:02.406Z,102286.28
2023-05-09T17:14:31.421Z,102286.41
2023-05-09T17:17:00.772Z,102290.06
2023-05-09T17:19:28.906Z,102285.69
2023-05-09T17:21:58.975Z,102282.25
2023-05-09T17:24:27.255Z,102285.06
2023-05-09T17:26:56.582Z,102290.50
2023-05-09T17:29:24.549Z,102289.72
2023-05-09T17:31:52.493Z,102281.81
2023-05-09T17:34:22.100Z,102286.34
2023-05-09T17:36:50.239Z,102287.28
2023-05-09T17:39:18.544Z,102282.00
2023-05-09T17:41:47.240Z,102285.63
2023-05-09T17:44:15.481Z,102281.25
2023-05-09T17:46:44.081Z,102283.13
2023-05-09T17:49:14.034Z,102289.38
2023-05-09T17:51:43.892Z,102281.38
2023-05-09T17:54:12.868Z,102282.28
2023-05-09T17:56:40.885Z,102286.78
2023-05-09T17:59:08.867Z,102280.59
2023-05-09T18:01:36.997Z,102276.19
2023-05-09T18:04:05.096Z,102287.81
2023-05-09T18:06:33.202Z,102279.88
2023-05-09T18:09:03.205Z,102293.25
2023-05-09T18:11:31.368Z,102282.66
2023-05-09T18:13:59.299Z,102282.69
2023-05-09T18:16:27.394Z,102284.56
2023-05-09T18:18:55.570Z,102282.88
2023-05-09T18:21:23.555Z,102287.34
2023-05-09T18:23:51.648Z,102281.19
2023-05-09T18:26:21.931Z,102279.44
2023-05-09T18:28:49.875Z,102283.97
2023-05-09T18:31:18.069Z,102291.97
2023-05-09T18:33:46.537Z,102280.44
2023-05-09T18:36:15.365Z,102284.03
2023-05-09T18:38:44.539Z,102290.25
2023-05-09T18:41:13.720Z,102293.88
2023-05-09T18:43:45.935Z,102302.78
2023-05-09T18:46:17.310Z,102293.97
2023-05-09T18:48:47.246Z,102292.19
2023-05-09T18:51:15.192Z,102292.22
2023-05-09T18:53:43.382Z,102297.63
2023-05-09T18:56:11.491Z,102294.97
2023-05-09T18:58:39.943Z,102294.16
2023-05-09T19:01:11.750Z,102292.41
2023-05-09T19:03:43.616Z,102294.25
2023-05-09T19:06:13.658Z,102291.59
2023-05-09T19:08:41.813Z,102287.22
2023-05-09T19:11:11.603Z,102288.09
2023-05-09T19:13:40.884Z,102291.69
2023-05-09T19:16:10.408Z,102291.69
2023-05-09T19:18:38.499Z,102285.59
2023-05-09T19:21:06.679Z,102284.72
2023-05-09T19:23:34.941Z,102281.19
2023-05-09T19:26:03.518Z,102283.94
2023-05-09T19:28:31.599Z,102289.31
2023-05-09T19:30:59.642Z,102285.00
2023-05-09T19:33:29.118Z,102286.00
2023-05-09T19:35:57.227Z,102280.81
2023-05-09T19:38:25.421Z,102280.88
2023-05-09T19:40:53.771Z,102278.28
2023-05-09T19:43:21.907Z,102288.97
2023-05-09T19:45:50.208Z,102289.06
2023-05-09T19:48:18.275Z,102279.38
2023-05-09T19:50:47.691Z,102280.28
2023-05-09T19:53:15.692Z,102278.53
2023-05-09T19:55:46.791Z,102279.50
2023-05-09T19:58:17.473Z,102278.59
2023-05-09T20:00:46.010Z,102278.63
2023-05-09T20:03:14.236Z,102278.66
2023-05-09T20:05:42.309Z,102274.31
2023-05-09T20:08:11.742Z,102282.31
2023-05-09T20:10:40.491Z,102282.34
2023-05-09T20:13:08.539Z,102281.47
2023-05-09T20:15:36.692Z,102280.59
2023-05-09T20:18:07.155Z,102285.94
2023-05-09T20:20:35.372Z,102288.59
2023-05-09T20:23:03.407Z,102283.34
2023-05-09T20:25:32.741Z,102275.41
2023-05-09T20:28:00.796Z,102268.34
2023-05-09T20:30:28.818Z,102273.69
2023-05-09T20:32:58.563Z,102273.69
2023-05-09T20:35:26.696Z,102273.69
2023-05-09T20:37:54.742Z,102267.50
2023-05-09T20:40:23.488Z,102264.00
2023-05-09T20:42:52.816Z,102266.69
2023-05-09T20:45:21.195Z,102264.09
2023-05-09T20:47:50.521Z,102272.97
2023-05-09T20:50:18.790Z,102262.41
2023-05-09T20:52:46.891Z,102271.25
2023-05-09T20:55:14.968Z,102273.91
2023-05-09T20:57:42.974Z,102273.91
2023-05-09T21:00:13.592Z,102275.72
2023-05-09T21:11:46.528Z,102271.38
2023-05-09T21:14:14.612Z,102275.84
2023-05-09T21:16:45.181Z,102274.09
2023-05-09T21:19:13.420Z,102273.22
2023-05-09T21:21:41.498Z,102273.22
2023-05-09T21:24:09.930Z,102267.03
2023-05-09T21:26:37.918Z,102260.88
2023-05-09T21:29:06.603Z,102272.38
2023-05-09T21:31:34.856Z,102264.41
2023-05-09T21:34:09.737Z,102268.81
2023-05-09T21:36:38.493Z,102267.06
2023-05-09T21:39:09.642Z,102271.50
2023-05-09T21:41:38.745Z,102277.69
2023-05-09T21:44:07.383Z,102269.72
2023-05-09T21:46:36.180Z,102262.69
2023-05-09T21:49:05.761Z,102262.69
2023-05-09T21:51:34.100Z,102268.03
2023-05-09T21:54:02.257Z,102260.94
2023-05-09T21:56:30.645Z,102261.81
2023-05-09T21:58:58.823Z,102262.75
2023-05-09T22:01:26.756Z,102267.16
2023-05-09T22:03:54.983Z,102259.22
2023-05-09T22:06:24.441Z,102265.41
2023-05-09T22:08:52.577Z,102259.19
2023-05-09T22:11:20.638Z,102263.63
2023-05-09T22:13:48.664Z,102257.44
2023-05-09T22:16:17.596Z,102260.97
2023-05-09T22:18:45.853Z,102265.38
2023-05-09T22:21:13.873Z,102264.50
2023-05-09T22:23:43.293Z,102254.78
2023-05-09T22:26:11.294Z,102262.72
2023-05-09T22:28:39.510Z,102263.66
2023-05-09T22:31:08.511Z,102260.13
2023-05-09T22:33:36.622Z,102263.63
2023-05-09T22:36:05.793Z,102258.31
2023-05-09T22:38:33.932Z,102261.88
2023-05-09T22:41:03.359Z,102263.63
2023-05-09T22:43:38.641Z,102252.16
2023-05-09T22:46:08.066Z,102255.72
2023-05-09T22:48:36.321Z,102254.81
2023-05-09T22:51:04.649Z,102253.09
2023-05-09T22:53:33.776Z,102252.19
2023-05-09T22:56:03.338Z,102257.50
2023-05-09T22:58:31.427Z,102261.03
2023-05-09T23:00:59.465Z,102261.06
2023-05-09T23:03:27.698Z,102262.81
2023-05-09T23:05:55.784Z,102259.28
2023-05-09T23:08:24.433Z,102260.19
2023-05-09T23:10:53.008Z,102259.28
2023-05-09T23:13:22.410Z,102258.41
2023-05-09T23:15:50.464Z,102259.31
2023-05-09T23:18:18.649Z,102258.41
2023-05-09T23:20:46.603Z,102260.19
2023-05-09T23:23:14.650Z,102259.28
2023-05-09T23:25:42.863Z,102262.84
2023-05-09T23:28:11.052Z,102258.44
2023-05-09T23:30:40.472Z,102266.41
2023-05-09T23:33:08.578Z,102264.63
2023-05-09T23:35:36.767Z,102254.88
2023-05-09T23:38:05.046Z,102268.16
2023-05-09T23:40:33.157Z,102269.03
2023-05-09T23:43:01.281Z,102269.91
2023-05-09T23:45:29.520Z,102270.81
2023-05-09T23:47:59.157Z,102266.41
2023-05-09T23:50:27.245Z,102265.50
2023-05-09T23:52:55.324Z,102267.25
2023-05-09T23:55:23.308Z,102260.19
2023-05-09T23:57:51.301Z,102259.31
